Dighton, MA

8:09 AM EST on March 06, 2015 (GMT -0500)
Dighton | Change Station
CLOSE
Current Station
Personal Weather Station
Location: Dighton, MA
Elevation: 49 ft
Nearby Weather Stations

Elev 49 ft 41.82 °N, 71.13 °W | Updated 17 minutes ago

Clear
Clear
20.8 °F
Feels Like 21 °F
N
1.7
Wind Variable Wind from East

Today
High -- | Low -- °F
--% Chance of Precip.
Yesterday
High -- | Low -- °F
Precip. -- in
6:11 AM 5:40 PM
Waxing Gibbous, 99% visible
Pressure 30.49 in
Visibility 10.0 miles
Clouds Clear
Windchill 21 °F
Dew Point 6 °F
Humidity 52%
Rainfall in
Snow Depth Not available.
UV 1 out of 12
Pollen .50 out of 12
Air Quality Not available.
Flu Activity Not available.
METAR KTAN 061252Z AUTO VRB05KT 10SM CLR M11/M19 A3049 RMK AO2 SLP324 T11111194

More Conditions Fewer Conditions

Pressure 30.49 in
Visibility 10.0 miles
Clouds Clear
Windchill 21 °F
Dew Point 6 °F
Humidity 52%
Rainfall in
Snow Depth Not available.
UV 1 out of 12
Pollen .50 out of 12
Air Quality Not available.
Flu Activity Not available.
METAR KTAN 061252Z AUTO VRB05KT 10SM CLR M11/M19 A3049 RMK AO2 SLP324 T11111194

More Conditions Fewer Conditions

10-Day Weather Forecast

Almanac

Astronomy

Mar. 06, 2015 Rise Set
Actual Time
Civil Twilight
Nautical Twilight
Astronomical Twilight
Moon
Length of Visible Light
Length of Day
Tomorrow will be .
, % of the Moon is Illuminated

Today's Extremes

State Highs State Lows

Community

WunderPhotos

Upload Photos

1,803,252 photos uploaded!

WunderBlogs® & News

Nearby

Air Quality

  Air Quality AQ Index Pollutant
Not available.

Snow Depth

Station Depth Elevation

Earthquake Activity

City Distance Mag. Time & Date
Minimum magnitude displayed is 2.5.

Coastal Water Temperatures

Place Temperature

Nearby Weather Stations